createdAt,value
2022-09-21T00:03:06.309Z,99164.45
2022-09-21T00:06:22.350Z,99169.04
2022-09-21T00:09:34.023Z,99164.72
2022-09-21T00:12:47.496Z,99157.72
2022-09-21T00:15:59.773Z,99162.31
2022-09-21T00:19:11.927Z,99158.22
2022-09-21T00:22:23.683Z,99154.01
2022-09-21T00:25:35.778Z,99164.03
2022-09-21T00:28:49.395Z,99161.64
2022-09-21T00:32:01.080Z,99157.16
2022-09-21T00:35:14.707Z,99161.06
2022-09-21T00:38:26.435Z,99158.65
2022-09-21T00:41:40.067Z,99171.05
2022-09-21T00:44:52.086Z,99158.06
2022-09-21T00:48:04.638Z,99167.09
2022-09-21T00:51:16.537Z,99171.68
2022-09-21T00:54:33.719Z,99173.88
2022-09-21T00:57:45.654Z,99172.31
2022-09-21T01:00:57.880Z,99173.26
2022-09-21T01:04:11.911Z,99172.54
2022-09-21T01:07:28.627Z,99171.82
2022-09-21T01:10:48.358Z,99171.82
2022-09-21T01:14:15.421Z,99176.41
2022-09-21T01:17:37.567Z,99180.75
2022-09-21T01:21:15.612Z,99175.45
2022-09-21T01:24:52.758Z,99186.05
2022-09-21T01:28:29.283Z,99182.42
2022-09-21T01:31:46.398Z,99193.87
2022-09-21T01:35:02.316Z,99186.05
2022-09-21T01:38:21.898Z,99183.53
2022-09-21T01:41:37.716Z,99179.45
2022-09-21T01:44:51.975Z,99182.91
2022-09-21T01:48:06.493Z,99179.31
2022-09-21T01:51:22.272Z,99187.00
2022-09-21T01:54:39.089Z,99184.48
2022-09-21T01:57:56.502Z,99189.65
2022-09-21T02:01:09.178Z,99193.28
2022-09-21T02:04:21.136Z,99191.58
2022-09-21T02:07:33.355Z,99189.65
2022-09-21T02:10:49.746Z,99190.63
2022-09-21T02:14:02.933Z,99195.93
2022-09-21T02:17:26.047Z,99202.67
2022-09-21T02:20:42.835Z,99197.37
2022-09-21T02:24:00.877Z,99197.50
2022-09-21T02:27:18.643Z,99196.39
2022-09-21T02:30:33.201Z,99196.65
2022-09-21T02:33:55.653Z,99198.31
2022-09-21T02:37:12.537Z,99193.73
2022-09-21T02:40:32.460Z,99198.09
2022-09-21T02:43:51.809Z,99195.44
2022-09-21T02:47:08.153Z,99200.02
2022-09-21T02:50:25.882Z,99203.38
2022-09-21T02:53:41.776Z,99206.75
2022-09-21T02:56:55.541Z,99206.75
2022-09-21T03:00:08.093Z,99212.77
2022-09-21T03:03:26.457Z,99218.08
2022-09-21T03:06:38.382Z,99216.14
2022-09-21T03:09:50.329Z,99213.49
2022-09-21T03:13:05.285Z,99220.46
2022-09-21T03:16:17.311Z,99215.88
2022-09-21T03:19:29.288Z,99222.88
2022-09-21T03:22:41.022Z,99218.53
2022-09-21T03:25:56.404Z,99220.23
2022-09-21T03:29:08.926Z,99229.13
2022-09-21T03:32:21.407Z,99231.55
2022-09-21T03:35:33.977Z,99235.77
2022-09-21T03:38:45.713Z,99240.09
2022-09-21T03:41:59.049Z,99241.89
2022-09-21T03:45:13.476Z,99241.80
2022-09-21T03:48:25.689Z,99247.09
2022-09-21T03:51:37.423Z,99244.31
2022-09-21T03:54:49.180Z,99243.23
2022-09-21T03:58:01.562Z,99245.75
2022-09-21T04:01:13.122Z,99246.57
2022-09-21T04:04:24.933Z,99250.79
2022-09-21T04:07:40.769Z,99248.27
2022-09-21T04:10:52.567Z,99257.07
2022-09-21T04:14:05.663Z,99253.57
2022-09-21T04:17:17.492Z,99255.14
2022-09-21T04:20:29.237Z,99254.66
2022-09-21T04:23:41.315Z,99264.44
2022-09-21T04:26:53.774Z,99267.19
2022-09-21T04:30:07.783Z,99269.02
2022-09-21T04:33:20.038Z,99270.55
2022-09-21T04:36:36.685Z,99271.27
2022-09-21T04:39:48.378Z,99259.95
2022-09-21T04:43:01.114Z,99262.47
2022-09-21T04:46:18.525Z,99265.02
2022-09-21T04:49:30.557Z,99269.34
2022-09-21T04:52:42.705Z,99268.39
2022-09-21T04:55:55.865Z,99269.84
2022-09-21T04:59:07.780Z,99279.95
2022-09-21T05:02:19.432Z,99273.80
2022-09-21T05:05:32.048Z,99279.69
2022-09-21T05:08:59.455Z,99279.69
2022-09-21T05:12:10.052Z,99282.20
2022-09-21T05:15:22.261Z,99275.23
2022-09-21T05:18:33.929Z,99279.19
2022-09-21T05:21:46.528Z,99277.02
2022-09-21T05:24:58.314Z,99287.36
2022-09-21T05:28:12.599Z,99291.33
2022-09-21T05:31:40.423Z,99289.88
2022-09-21T05:35:01.216Z,99294.06
2022-09-21T05:38:17.779Z,99291.41
2022-09-21T05:41:31.272Z,99296.93
2022-09-21T05:44:44.614Z,99305.02
2022-09-21T05:48:10.267Z,99303.80
2022-09-21T05:51:28.232Z,99302.95
2022-09-21T05:54:53.525Z,99306.59
2022-09-21T05:58:15.102Z,99297.56
2022-09-21T06:01:38.721Z,99305.39
2022-09-21T06:04:54.215Z,99301.30
2022-09-21T06:08:06.004Z,99305.16
2022-09-21T06:11:18.326Z,99304.30
2022-09-21T06:14:29.971Z,99308.04
2022-09-21T06:17:41.637Z,99317.44
2022-09-21T06:28:52.458Z,99315.00
2022-09-21T06:32:05.634Z,99313.28
2022-09-21T06:39:17.720Z,99310.89
2022-09-21T06:46:47.289Z,99322.67
2022-09-21T06:49:58.897Z,99321.34
2022-09-21T06:53:11.167Z,99331.86
2022-09-21T07:13:10.121Z,99335.11
2022-09-21T07:16:22.253Z,99337.05
2022-09-21T07:19:34.017Z,99338.75
2022-09-21T07:22:45.613Z,99339.97
2022-09-21T07:25:57.319Z,99340.83
2022-09-21T07:29:09.074Z,99347.67
2022-09-21T07:32:21.689Z,99351.45
2022-09-21T07:35:33.659Z,99349.00
2022-09-21T07:38:47.466Z,99350.73
2022-09-21T07:41:59.538Z,99358.77
2022-09-21T07:45:13.717Z,99363.05
2022-09-21T07:48:25.866Z,99360.86
2022-09-21T07:51:37.590Z,99361.71
2022-09-21T07:54:49.313Z,99363.14
2022-09-21T07:58:15.661Z,99362.80
2022-09-21T08:01:28.188Z,99361.81
2022-09-21T08:04:40.114Z,99362.86
2022-09-21T08:07:53.073Z,99364.15
2022-09-21T08:11:11.928Z,99362.77
2022-09-21T08:14:26.428Z,99362.33
2022-09-21T08:17:38.630Z,99368.25
2022-09-21T08:20:50.284Z,99361.13
2022-09-21T08:24:02.016Z,99368.11
2022-09-21T08:27:13.910Z,99363.72
2022-09-21T08:30:27.636Z,99358.08
2022-09-21T08:33:39.931Z,99353.63
2022-09-21T08:36:55.530Z,99374.90
2022-09-21T08:40:06.606Z,99375.46
2022-09-21T08:43:22.138Z,99369.44
2022-09-21T08:46:36.633Z,99367.22
2022-09-21T08:49:54.105Z,99371.02
2022-09-21T08:53:11.960Z,99371.88
2022-09-21T08:56:36.810Z,99375.39
2022-09-21T08:59:39.432Z,99375.84
2022-09-21T09:03:09.201Z,99378.61
2022-09-21T09:06:27.208Z,99377.18
2022-09-21T09:10:10.721Z,99370.20
2022-09-21T09:13:40.794Z,99384.33
2022-09-21T09:17:01.207Z,99376.08
2022-09-21T09:20:21.895Z,99378.28
2022-09-21T09:23:38.511Z,99373.67
2022-09-21T09:26:54.173Z,99372.58
2022-09-21T09:30:12.701Z,99370.75
2022-09-21T09:33:28.873Z,99376.94
2022-09-21T09:36:57.880Z,99371.33
2022-09-21T09:40:00.810Z,99374.39
2022-09-21T09:43:17.163Z,99372.42
2022-09-21T09:46:36.449Z,99379.98
2022-09-21T09:49:57.752Z,99362.86
2022-09-21T09:53:15.853Z,99372.80
2022-09-21T09:56:28.817Z,99372.77
2022-09-21T09:59:49.370Z,99371.19
2022-09-21T10:03:02.621Z,99377.50
2022-09-21T10:06:22.548Z,99369.97
2022-09-21T10:09:39.323Z,99382.03
2022-09-21T10:12:55.199Z,99377.70
2022-09-21T10:16:14.723Z,99375.91
2022-09-21T10:19:30.771Z,99370.75
2022-09-21T10:22:47.317Z,99369.20
2022-09-21T10:26:09.634Z,99371.72
2022-09-21T10:29:47.443Z,99377.59
2022-09-21T10:33:04.060Z,99377.89
2022-09-21T10:36:33.817Z,99382.36
2022-09-21T10:39:52.989Z,99385.02
2022-09-21T10:43:06.201Z,99379.44
2022-09-21T10:46:20.138Z,99388.13
2022-09-21T10:49:37.148Z,99386.56
2022-09-21T10:52:51.016Z,99383.35
2022-09-21T10:56:16.604Z,99378.28
2022-09-21T10:59:31.599Z,99379.98
2022-09-21T11:02:46.653Z,99380.15
2022-09-21T11:05:59.964Z,99377.05
2022-09-21T11:09:16.569Z,99378.05
2022-09-21T11:12:51.709Z,99379.70
2022-09-21T11:16:08.846Z,99378.03
2022-09-21T11:19:29.575Z,99370.77
2022-09-21T11:22:47.464Z,99376.80
2022-09-21T11:26:05.342Z,99381.02
2022-09-21T11:29:23.328Z,99378.06
2022-09-21T11:33:00.770Z,99379.20
2022-09-21T11:36:20.653Z,99359.02
2022-09-21T11:39:39.532Z,99366.86
2022-09-21T11:43:03.568Z,99362.66
2022-09-21T11:46:24.833Z,99361.24
2022-09-21T11:50:30.908Z,99357.13
2022-09-21T11:53:57.829Z,99357.38
2022-09-21T11:57:17.331Z,99349.91
2022-09-21T12:00:29.981Z,99351.08
2022-09-21T12:04:13.438Z,99347.13
2022-09-21T12:07:53.814Z,99346.36
2022-09-21T12:11:14.102Z,99340.11
2022-09-21T12:14:33.419Z,99327.28
2022-09-21T12:17:55.378Z,99321.52
2022-09-21T12:21:13.554Z,99319.25
2022-09-21T12:24:31.959Z,99322.06
2022-09-21T12:27:48.337Z,99314.33
2022-09-21T12:31:03.850Z,99310.36
2022-09-21T12:34:20.428Z,99310.19
2022-09-21T12:37:47.308Z,99309.48
2022-09-21T12:41:04.350Z,99319.55
2022-09-21T12:44:21.633Z,99320.41
2022-09-21T12:47:44.249Z,99313.57
2022-09-21T12:51:05.029Z,99321.85
2022-09-21T12:54:21.697Z,99309.33
2022-09-21T12:57:58.611Z,99319.83
2022-09-21T13:01:06.323Z,99315.90
2022-09-21T13:04:49.871Z,99308.12
2022-09-21T13:08:16.463Z,99308.97
2022-09-21T13:11:29.504Z,99306.52
2022-09-21T13:14:46.204Z,99298.09
2022-09-21T13:18:22.238Z,99296.48
2022-09-21T13:21:36.648Z,99296.09
2022-09-21T13:28:46.261Z,99294.38
2022-09-21T13:32:04.714Z,99295.08
2022-09-21T13:35:55.559Z,99294.52
2022-09-21T13:39:26.248Z,99301.38
2022-09-21T13:42:55.138Z,99304.20
2022-09-21T13:46:07.414Z,99304.11
2022-09-21T13:49:31.395Z,99303.70
2022-09-21T13:52:50.861Z,99306.16
2022-09-21T13:56:10.915Z,99303.24
2022-09-21T13:59:30.444Z,99303.78
2022-09-21T14:02:46.045Z,99300.26
2022-09-21T14:06:03.265Z,99290.84
2022-09-21T14:09:27.581Z,99292.34
2022-09-21T14:12:45.626Z,99286.19
2022-09-21T14:16:09.403Z,99288.63
2022-09-21T14:20:11.082Z,99284.58
2022-09-21T14:23:36.664Z,99264.73
2022-09-21T14:27:19.205Z,99253.59
2022-09-21T14:30:34.093Z,99247.30
2022-09-21T14:33:55.084Z,99245.94
2022-09-21T14:37:13.012Z,99236.88
2022-09-21T14:40:31.829Z,99286.40
2022-09-21T14:43:45.094Z,99287.66
2022-09-21T14:47:28.497Z,99290.99
2022-09-21T14:50:45.314Z,99281.00
2022-09-21T14:54:22.196Z,99284.94
2022-09-21T14:58:02.634Z,99288.60
2022-09-21T15:01:46.335Z,99287.20
2022-09-21T15:05:30.319Z,99295.45
2022-09-21T15:09:09.647Z,99301.20
2022-09-21T15:12:27.565Z,99302.20
2022-09-21T15:15:48.424Z,99306.85
2022-09-21T15:19:20.448Z,99313.87
2022-09-21T15:22:33.235Z,99313.31
2022-09-21T15:25:46.579Z,99313.03
2022-09-21T15:29:18.357Z,99319.35
2022-09-21T15:32:31.338Z,99316.41
2022-09-21T15:35:43.457Z,99321.89
2022-09-21T15:39:00.027Z,99325.95
2022-09-21T15:42:31.522Z,99319.34
2022-09-21T15:45:55.143Z,99332.23
2022-09-21T15:49:09.954Z,99321.44
2022-09-21T15:52:32.460Z,99329.88
2022-09-21T15:55:47.938Z,99326.92
2022-09-21T15:59:09.230Z,99338.27
2022-09-21T16:02:24.600Z,99337.86
2022-09-21T16:05:38.656Z,99337.70
2022-09-21T16:08:50.733Z,99342.33
2022-09-21T16:12:03.321Z,99355.63
2022-09-21T16:15:33.257Z,99373.50
2022-09-21T16:18:55.287Z,99381.83
2022-09-21T16:22:14.390Z,99389.78
2022-09-21T16:25:38.487Z,99385.59
2022-09-21T16:28:50.538Z,99388.19
2022-09-21T16:32:34.385Z,99383.82
2022-09-21T16:35:48.191Z,99383.11
2022-09-21T16:39:00.470Z,99366.22
2022-09-21T16:42:15.215Z,99387.92
2022-09-21T16:45:32.997Z,99394.61
2022-09-21T16:48:44.962Z,99395.80
2022-09-21T16:51:58.244Z,99394.75
2022-09-21T16:55:11.391Z,99397.68
2022-09-21T16:58:24.618Z,99388.14
2022-09-21T17:01:36.399Z,99393.84
2022-09-21T17:04:49.021Z,99400.38
2022-09-21T17:08:03.141Z,99403.31
2022-09-21T17:11:18.062Z,99397.28
2022-09-21T17:14:35.569Z,99410.09
2022-09-21T17:17:47.704Z,99409.64
2022-09-21T17:20:59.499Z,99412.80
2022-09-21T17:24:27.519Z,99425.95
2022-09-21T17:27:29.227Z,99423.88
2022-09-21T17:30:42.628Z,99417.03
2022-09-21T17:33:57.425Z,99430.17
2022-09-21T17:37:10.576Z,99428.61
2022-09-21T17:40:25.362Z,99430.91
2022-09-21T17:43:47.838Z,99434.29
2022-09-21T17:47:07.090Z,99437.66
2022-09-21T17:50:30.486Z,99432.35
2022-09-21T17:53:43.729Z,99435.99
2022-09-21T17:57:01.994Z,99427.89
2022-09-21T18:00:23.585Z,99424.28
2022-09-21T18:03:41.435Z,99432.35
2022-09-21T18:06:54.768Z,99430.68
2022-09-21T18:10:08.248Z,99432.62
2022-09-21T18:13:31.847Z,99444.09
2022-09-21T18:16:53.020Z,99444.09
2022-09-21T18:20:15.251Z,99447.56
2022-09-21T18:23:40.173Z,99444.33
2022-09-21T18:26:54.198Z,99452.66
2022-09-21T18:30:08.040Z,99461.61
2022-09-21T18:33:24.977Z,99457.88
2022-09-21T18:36:43.356Z,99456.66
2022-09-21T18:40:02.721Z,99445.68
2022-09-21T18:43:26.070Z,99452.92
2022-09-21T18:46:50.857Z,99442.30
2022-09-21T18:50:10.101Z,99439.78
2022-09-21T18:53:30.871Z,99436.52
2022-09-21T18:56:47.568Z,99446.90
2022-09-21T19:00:01.277Z,99447.13
2022-09-21T19:03:19.868Z,99447.53
2022-09-21T19:06:46.730Z,99445.73
2022-09-21T19:10:10.552Z,99446.94
2022-09-21T19:13:40.543Z,99445.23
2022-09-21T19:17:04.575Z,99441.41
2022-09-21T19:20:46.924Z,99448.66
2022-09-21T19:24:12.117Z,99446.23
2022-09-21T19:27:33.017Z,99440.30
2022-09-21T19:30:46.827Z,99438.86
2022-09-21T19:33:59.464Z,99434.63
2022-09-21T19:37:12.039Z,99426.54
2022-09-21T19:40:27.928Z,99426.80
2022-09-21T20:01:22.335Z,99428.14
2022-09-21T20:04:40.684Z,99427.16
2022-09-21T20:07:59.163Z,99435.98
2022-09-21T20:15:46.735Z,99434.89
2022-09-21T20:19:03.904Z,99431.26
2022-09-21T20:22:21.550Z,99431.98
2022-09-21T20:25:38.685Z,99437.28
2022-09-21T20:28:54.289Z,99435.72
2022-09-21T20:32:06.773Z,99430.31
2022-09-21T20:35:24.364Z,99428.60
2022-09-21T20:38:37.258Z,99425.95
2022-09-21T20:41:49.697Z,99435.72
2022-09-21T20:45:02.547Z,99430.41
2022-09-21T20:48:21.349Z,99435.84
2022-09-21T20:51:33.353Z,99427.88
2022-09-21T20:54:49.015Z,99423.43
2022-09-21T20:57:59.634Z,99421.98
2022-09-21T21:01:12.856Z,99428.14
2022-09-21T21:04:24.663Z,99429.81
2022-09-21T21:07:37.196Z,99434.66
2022-09-21T21:10:53.450Z,99432.01
2022-09-21T21:14:05.512Z,99429.59
2022-09-21T21:17:18.546Z,99431.52
2022-09-21T21:20:30.968Z,99425.39
2022-09-21T21:23:53.473Z,99426.94
2022-09-21T21:27:05.208Z,99423.45
2022-09-21T21:30:19.271Z,99416.81
2022-09-21T21:33:31.076Z,99425.48
2022-09-21T21:36:43.133Z,99422.02
2022-09-21T21:39:55.026Z,99422.97
2022-09-21T21:43:06.746Z,99417.66
2022-09-21T21:46:18.531Z,99418.74
2022-09-21T21:49:31.341Z,99421.30
2022-09-21T21:52:45.150Z,99419.36
2022-09-21T21:55:59.080Z,99414.05
2022-09-21T21:59:15.397Z,99406.20
2022-09-21T22:02:24.924Z,99394.41
2022-09-21T22:05:38.373Z,99404.53
2022-09-21T22:08:50.128Z,99403.80
2022-09-21T22:12:03.933Z,99399.45
2022-09-21T22:15:18.827Z,99400.66
2022-09-21T22:18:32.614Z,99395.75
2022-09-21T22:21:53.187Z,99395.38
2022-09-21T22:24:59.432Z,99388.98
2022-09-21T22:28:11.459Z,99392.75
2022-09-21T22:31:27.042Z,99391.77
2022-09-21T22:34:40.030Z,99391.89
2022-09-21T22:37:52.832Z,99391.05
2022-09-21T22:41:10.871Z,99394.67
2022-09-21T22:44:22.798Z,99394.67
2022-09-21T22:47:34.378Z,99381.64
2022-09-21T22:50:48.976Z,99375.88
2022-09-21T22:54:01.610Z,99381.41
2022-09-21T22:57:14.639Z,99382.13
2022-09-21T23:00:26.378Z,99375.16
2022-09-21T23:03:38.461Z,99376.10
2022-09-21T23:06:52.189Z,99377.08
2022-09-21T23:10:03.858Z,99372.00
2022-09-21T23:13:16.049Z,99373.11
2022-09-21T23:16:28.749Z,99368.76
2022-09-21T23:19:40.597Z,99375.98
2022-09-21T23:22:52.177Z,99373.47
2022-09-21T23:26:13.205Z,99375.14
2022-09-21T23:29:25.364Z,99375.39
2022-09-21T23:32:36.980Z,99372.88
2022-09-21T23:35:49.834Z,99373.22
2022-09-21T23:39:02.236Z,99379.47
2022-09-21T23:42:14.330Z,99382.37
2022-09-21T23:45:25.994Z,99376.56
2022-09-21T23:48:38.688Z,99377.67
2022-09-21T23:51:50.384Z,99388.36
2022-09-21T23:55:01.897Z,99383.19
2022-09-21T23:58:15.515Z,99385.23
